Time;durP1;ratioP1;P1;durP2;ratioP2;P2;SDS_P1;SDS_P2;PMS_P1;PMS_P2;Temp;Humidity;BMP_temperature;BMP_pressure;BME280_temperature;BME280_humidity;BME280_pressure;Samples;Min_cycle;Max_cycle;Signal;HPM_P1;HPM_P2
2021/04/26 00:00:57;;;;;;;2.60;2.50;;;;;;;2.44;69.46;101957.56;4414998;32;20703;-62
2021/04/26 00:03:23;;;;;;;2.70;2.60;;;;;;;2.46;70.42;101968.81;4413146;32;20068;-62
2021/04/26 00:05:48;;;;;;;2.70;2.60;;;;;;;2.44;69.68;101960.16;4414325;32;20076;-62
2021/04/26 00:08:13;;;;;;;2.80;2.70;;;;;;;2.42;69.99;101959.31;4411389;32;20069;-64
2021/04/26 00:10:39;;;;;;;2.67;2.58;;;;;;;2.37;70.37;101957.56;4413575;32;20139;-62
2021/04/26 00:13:04;;;;;;;2.70;2.60;;;;;;;2.34;70.66;101956.69;4417930;32;20068;-63
2021/04/26 00:15:30;;;;;;;2.87;2.78;;;;;;;2.27;70.96;101947.19;4413272;32;20103;-61
2021/04/26 00:17:55;;;;;;;2.70;2.60;;;;;;;2.29;70.38;101959.28;4414853;32;20054;-63
2021/04/26 00:20:23;;;;;;;2.50;2.40;;;;;;;2.26;70.52;101956.66;4417215;32;20115;-62
2021/04/26 00:22:49;;;;;;;2.62;2.53;;;;;;;2.21;70.15;101948.03;4413755;32;20092;-62
2021/04/26 00:25:14;;;;;;;2.72;2.62;;;;;;;2.17;70.27;101938.53;4413950;32;20225;-62
2021/04/26 00:27:39;;;;;;;2.80;2.70;;;;;;;2.12;70.95;101937.63;4412995;32;20500;-62
2021/04/26 00:30:08;;;;;;;2.60;2.50;;;;;;;2.07;70.84;101927.28;4439370;32;20077;-62
2021/04/26 00:32:33;;;;;;;2.70;2.60;;;;;;;2.03;71.39;101950.59;4416673;32;20103;-62
2021/04/26 00:34:59;;;;;;;2.80;2.70;;;;;;;1.95;71.53;101929.84;4413675;32;20866;-62
2021/04/26 00:37:24;;;;;;;2.70;2.60;;;;;;;1.92;71.35;101922.91;4413366;32;20083;-62
2021/04/26 00:39:49;;;;;;;2.80;2.70;;;;;;;1.97;71.44;101936.75;4415486;32;20077;-62
2021/04/26 00:42:15;;;;;;;2.53;2.42;;;;;;;0.25;70.83;101636.09;4411717;32;20069;-61
2021/04/26 00:44:40;;;;;;;2.78;2.67;;;;;;;1.92;71.77;101924.63;4413154;32;20578;-62
2021/04/26 00:47:06;;;;;;;3.12;2.90;;;;;;;1.90;71.18;101932.38;4411715;32;20069;-61
2021/04/26 00:49:32;;;;;;;2.60;2.50;;;;;;;1.91;71.69;101921.19;4415297;32;20938;-61
2021/04/26 00:51:57;;;;;;;2.70;2.60;;;;;;;1.92;71.17;101925.50;4412681;32;20100;-61
2021/04/26 00:54:22;;;;;;;3.90;3.75;;;;;;;1.88;71.76;101916.00;4412655;32;20065;-62
2021/04/26 00:56:48;;;;;;;2.67;2.58;;;;;;;1.83;72.11;101919.44;4416144;32;20069;-62
2021/04/26 00:59:13;;;;;;;2.85;2.75;;;;;;;1.78;72.07;101911.66;4413263;32;20123;-62
2021/04/26 01:01:38;;;;;;;2.50;2.40;;;;;;;1.75;71.51;101911.66;4414723;32;20914;-65
2021/04/26 01:04:04;;;;;;;2.60;2.50;;;;;;;1.72;72.09;101909.88;4417982;32;20080;-61
2021/04/26 01:06:29;;;;;;;2.90;2.72;;;;;;;1.35;71.95;101852.84;4402715;32;20677;-63
2021/04/26 01:08:55;;;;;;;2.70;2.60;;;;;;;1.68;71.51;101907.28;4426033;32;20076;-62
2021/04/26 01:11:21;;;;;;;2.60;2.50;;;;;;;1.67;72.29;101906.44;4412013;32;20717;-61
2021/04/26 01:14:04;;;;;;;2.60;2.50;;;;;;;1.65;71.70;101907.28;4420688;32;20744;-62
2021/04/26 01:16:33;;;;;;;2.55;2.45;;;;;;;1.63;71.43;101903.84;4427467;32;20091;-63
2021/04/26 01:19:06;;;;;;;2.65;2.55;;;;;;;1.62;72.18;101899.50;4414013;32;20831;-61
2021/04/26 01:22:02;;;;;;;2.40;2.30;;;;;;;1.57;71.21;101900.34;4430552;32;20136;-62
2021/04/26 01:24:38;;;;;;;2.50;2.40;;;;;;;1.55;71.31;101888.28;4431313;32;20080;-61
2021/04/26 01:27:17;;;;;;;2.72;2.62;;;;;;;1.49;72.06;101889.09;4410660;32;20088;-62
2021/04/26 01:29:58;;;;;;;2.60;2.50;;;;;;;1.47;72.57;101888.25;4425397;32;20076;-62
2021/04/26 01:32:43;;;;;;;2.60;2.50;;;;;;;1.48;71.86;101894.25;4435415;32;20146;-62
2021/04/26 01:35:11;;;;;;;2.50;2.40;;;;;;;1.38;72.10;101880.41;4411486;32;20088;-62
2021/04/26 01:37:37;;;;;;;2.47;2.37;;;;;;;0.20;72.25;101686.81;4411267;32;20131;-63
2021/04/26 01:40:04;;;;;;;4.25;3.78;;;;;;;1.32;71.83;101885.56;4413432;32;20057;-62
2021/04/26 01:42:29;;;;;;;2.53;2.42;;;;;;;1.35;72.61;101893.34;4413576;32;20093;-62
2021/04/26 01:44:55;;;;;;;2.60;2.50;;;;;;;1.30;72.85;101898.47;4402448;32;20544;-62
2021/04/26 01:47:20;;;;;;;2.70;2.60;;;;;;;1.27;72.60;101892.44;4410863;32;20405;-62
2021/04/26 01:49:46;;;;;;;2.70;2.60;;;;;;;1.26;72.80;101895.88;4412853;32;20065;-61
2021/04/26 01:52:11;;;;;;;2.90;2.80;;;;;;;1.22;73.53;101897.56;4412222;32;20090;-62
2021/04/26 01:54:37;;;;;;;2.45;2.35;;;;;;;1.19;74.44;101895.00;4413406;32;20107;-62
2021/04/26 01:57:02;;;;;;;2.40;2.30;;;;;;;1.17;74.06;101887.22;4408557;32;20151;-63
2021/04/26 01:59:28;;;;;;;2.40;2.30;;;;;;;1.14;74.41;101881.16;4414413;32;20087;-62
2021/04/26 02:01:53;;;;;;;2.60;2.50;;;;;;;1.09;74.95;101881.13;4414812;32;20071;-62
2021/04/26 02:04:20;;;;;;;2.65;2.55;;;;;;;1.01;74.75;101872.47;4424039;32;20143;-62
2021/04/26 02:06:46;;;;;;;2.47;2.37;;;;;;;1.05;75.39;101884.56;4413733;32;20065;-63
2021/04/26 02:09:11;;;;;;;3.12;3.03;;;;;;;1.06;75.48;101877.66;4417370;32;20073;-62
2021/04/26 02:11:37;;;;;;;2.40;2.30;;;;;;;1.06;75.40;101881.09;4411704;32;20489;-62
2021/04/26 02:14:02;;;;;;;2.50;2.40;;;;;;;1.01;74.61;101877.66;4438334;32;20064;-62
2021/04/26 02:16:28;;;;;;;2.40;2.30;;;;;;;0.98;75.30;101875.03;4413247;32;20240;-62
2021/04/26 02:18:53;;;;;;;2.60;2.50;;;;;;;0.98;75.54;101901.75;4413656;32;20077;-61
2021/04/26 02:21:18;;;;;;;2.72;2.62;;;;;;;0.86;74.84;101860.28;4413242;32;20900;-63
2021/04/26 02:23:44;;;;;;;2.42;2.33;;;;;;;0.91;74.58;101870.69;4408326;32;20080;-62
2021/04/26 02:26:09;;;;;;;2.40;2.30;;;;;;;0.86;75.23;101873.22;4410098;32;20092;-62
2021/04/26 02:28:34;;;;;;;2.55;2.45;;;;;;;0.83;75.29;101869.78;4415455;32;20833;-61
2021/04/26 02:31:00;;;;;;;2.60;2.50;;;;;;;0.78;75.49;101865.44;4428352;32;20083;-64
2021/04/26 02:33:31;;;;;;;2.37;2.28;;;;;;;0.76;75.97;101867.16;4413399;32;20617;-62
2021/04/26 02:36:29;;;;;;;2.50;2.40;;;;;;;0.74;76.09;101871.44;4415606;32;20088;-63
2021/04/26 02:38:56;;;;;;;2.40;2.30;;;;;;;0.68;75.90;101853.31;4440163;32;20171;-62
2021/04/26 02:41:28;;;;;;;2.58;2.47;;;;;;;0.73;75.97;101856.78;4418395;32;20709;-62
2021/04/26 02:43:57;;;;;;;2.50;2.40;;;;;;;0.72;75.39;101846.44;4413565;32;20078;-62
2021/04/26 02:46:24;;;;;;;2.30;2.20;;;;;;;0.73;75.87;101848.16;4415958;32;20247;-62
2021/04/26 02:48:49;;;;;;;2.83;2.72;;;;;;;0.69;76.13;101833.50;4412445;32;20077;-61
2021/04/26 02:51:15;;;;;;;2.50;2.40;;;;;;;0.72;75.87;101838.69;4412810;32;20076;-64
2021/04/26 02:53:40;;;;;;;2.40;2.30;;;;;;;0.66;75.75;101829.19;4413883;32;21052;-63
2021/04/26 02:56:10;;;;;;;2.92;2.83;;;;;;;0.77;75.16;101837.00;4415010;32;20942;-62
2021/04/26 02:58:36;;;;;;;2.28;2.17;;;;;;;0.73;75.60;101833.53;4412375;32;20980;-63
2021/04/26 03:01:04;;;;;;;2.30;2.20;;;;;;;0.73;75.67;101841.28;4415076;32;20199;-61
2021/04/26 03:03:31;;;;;;;2.60;2.50;;;;;;;0.62;74.69;101819.66;4414693;32;20093;-62
2021/04/26 03:05:56;;;;;;;2.40;2.30;;;;;;;0.63;75.50;101836.03;4414629;32;20125;-65
2021/04/26 03:08:21;;;;;;;2.30;2.20;;;;;;;0.58;75.38;101831.72;4417214;32;20057;-62
2021/04/26 03:10:47;;;;;;;2.53;2.42;;;;;;;-0.69;75.61;101616.50;4415236;32;20068;-62
2021/04/26 03:13:12;;;;;;;2.40;2.30;;;;;;;0.40;76.13;101810.88;4409752;32;20581;-62
2021/04/26 03:15:38;;;;;;;2.42;2.33;;;;;;;0.41;75.66;101809.19;4415833;32;20586;-62
2021/04/26 03:18:03;;;;;;;2.40;2.30;;;;;;;-0.96;76.06;101581.00;4413196;32;20065;-62
2021/04/26 03:20:29;;;;;;;2.40;2.30;;;;;;;0.49;75.62;101826.47;4426784;32;20057;-62
2021/04/26 03:22:54;;;;;;;2.97;2.87;;;;;;;0.49;75.84;101825.59;4401188;32;20057;-62
2021/04/26 03:25:21;;;;;;;2.67;2.58;;;;;;;0.49;75.57;101820.44;4415738;32;20065;-63
2021/04/26 03:27:47;;;;;;;2.30;2.20;;;;;;;0.49;76.02;101821.31;4413448;32;20065;-62
2021/04/26 03:30:16;;;;;;;2.30;2.20;;;;;;;0.05;76.21;101740.94;4411000;32;20073;-62
2021/04/26 03:32:42;;;;;;;2.50;2.40;;;;;;;0.50;76.61;101811.81;4439550;32;20155;-63
2021/04/26 03:35:08;;;;;;;2.50;2.40;;;;;;;0.52;76.11;101810.13;4415764;32;20195;-63
2021/04/26 03:37:34;;;;;;;2.30;2.20;;;;;;;0.48;75.81;101809.25;4412869;32;20068;-63
2021/04/26 03:39:59;;;;;;;2.50;2.40;;;;;;;0.45;76.46;101803.19;4427099;32;20776;-62
2021/04/26 03:42:25;;;;;;;2.72;2.62;;;;;;;0.41;75.89;101801.44;4414925;32;20088;-62
2021/04/26 03:44:50;;;;;;;2.37;2.28;;;;;;;0.13;76.32;101767.66;4415125;32;20081;-60
2021/04/26 03:47:16;;;;;;;2.30;2.20;;;;;;;0.28;76.42;101805.63;4411856;32;20064;-62
2021/04/26 03:49:41;;;;;;;2.20;2.10;;;;;;;0.21;76.62;101803.88;4424289;32;20078;-62
2021/04/26 03:52:07;;;;;;;2.58;2.47;;;;;;;-0.07;76.91;101767.50;4411978;32;20503;-62
2021/04/26 03:54:32;;;;;;;2.35;2.25;;;;;;;0.11;77.03;101805.50;4415546;32;20068;-63
2021/04/26 03:56:58;;;;;;;2.40;2.30;;;;;;;0.06;76.67;101810.63;4414684;32;20092;-62
2021/04/26 03:59:23;;;;;;;2.58;2.47;;;;;;;0.04;77.37;101803.69;4401373;32;20091;-63
2021/04/26 04:01:49;;;;;;;2.53;2.42;;;;;;;-0.03;76.65;101798.50;4414299;32;20064;-63
2021/04/26 04:04:14;;;;;;;2.45;2.35;;;;;;;-0.04;76.83;101798.47;4411918;32;20774;-62
2021/04/26 04:06:39;;;;;;;2.50;2.40;;;;;;;-0.05;77.84;101802.78;4415058;32;20104;-63
2021/04/26 04:09:05;;;;;;;2.45;2.35;;;;;;;-0.07;77.75;101801.91;4422554;32;20894;-62
2021/04/26 04:11:31;;;;;;;2.30;2.20;;;;;;;-0.10;77.40;101814.78;4414767;32;20080;-62
2021/04/26 04:13:56;;;;;;;2.50;2.40;;;;;;;-0.07;77.66;101808.78;4413924;32;20200;-63
2021/04/26 04:16:21;;;;;;;3.22;3.12;;;;;;;-0.09;77.71;101802.75;4401384;32;20587;-62
2021/04/26 04:18:47;;;;;;;2.50;2.40;;;;;;;-0.20;78.26;101782.00;4416146;32;20076;-62
2021/04/26 04:21:12;;;;;;;2.53;2.42;;;;;;;-0.07;78.54;101801.91;4416587;32;20669;-62
2021/04/26 04:23:38;;;;;;;2.47;2.37;;;;;;;0.05;78.05;101802.87;4417637;32;20076;-62
2021/04/26 04:26:03;;;;;;;2.45;2.35;;;;;;;-0.01;78.04;101773.56;4427906;32;20932;-61
2021/04/26 04:28:32;;;;;;;2.40;2.30;;;;;;;0.33;77.60;101801.38;4413303;32;20065;-61
2021/04/26 04:30:58;;;;;;;2.58;2.47;;;;;;;0.65;77.56;101804.19;4418416;32;20087;-61
2021/04/26 04:33:23;;;;;;;2.53;2.42;;;;;;;0.85;76.72;101803.47;4414227;32;20594;-61
2021/04/26 04:35:48;;;;;;;2.40;2.30;;;;;;;0.82;76.48;101808.59;4425440;32;20146;-62
2021/04/26 04:38:14;;;;;;;2.60;2.50;;;;;;;0.77;75.82;101812.03;4426224;32;20399;-62
2021/04/26 04:40:39;;;;;;;2.40;2.30;;;;;;;0.72;76.69;101803.41;4414562;32;20076;-61
2021/04/26 04:43:05;;;;;;;2.50;2.40;;;;;;;0.70;76.68;101807.69;4413692;32;20122;-62
2021/04/26 04:45:30;;;;;;;2.40;2.30;;;;;;;0.73;76.36;101812.84;4427727;32;20069;-62
2021/04/26 04:47:55;;;;;;;2.30;2.20;;;;;;;1.17;75.83;101809.66;4414287;32;20085;-61
2021/04/26 04:50:21;;;;;;;3.00;2.90;;;;;;;1.90;75.31;101804.69;4412385;32;20064;-61
2021/04/26 04:52:46;;;;;;;2.40;2.30;;;;;;;2.36;72.51;101800.38;4414181;32;20114;-62
2021/04/26 04:55:11;;;;;;;2.50;2.40;;;;;;;2.83;71.11;101802.91;4426607;32;20060;-61
2021/04/26 04:57:37;;;;;;;2.50;2.40;;;;;;;3.49;69.73;101798.38;4414586;32;20064;-62
2021/04/26 05:00:04;;;;;;;2.60;2.50;;;;;;;4.17;68.59;101797.94;4412212;32;20064;-63
2021/04/26 05:02:29;;;;;;;2.92;2.83;;;;;;;4.67;66.98;101796.63;4413882;32;20084;-63
2021/04/26 05:04:55;;;;;;;2.62;2.53;;;;;;;5.22;65.22;101789.06;4414859;32;20697;-64
2021/04/26 05:07:20;;;;;;;2.80;2.70;;;;;;;5.65;63.67;101781.53;4415548;32;20090;-61
2021/04/26 05:09:45;;;;;;;2.92;2.83;;;;;;;6.11;62.22;101785.22;4386872;32;20087;-62
2021/04/26 05:12:11;;;;;;;2.92;2.83;;;;;;;5.99;60.95;101718.53;4414206;32;20088;-62
2021/04/26 05:14:38;;;;;;;2.85;2.75;;;;;;;6.74;60.20;101795.44;4414456;32;20084;-61
2021/04/26 05:17:04;;;;;;;3.00;2.90;;;;;;;7.09;59.38;101785.19;4414770;32;20080;-62
2021/04/26 05:19:29;;;;;;;3.20;3.10;;;;;;;7.47;57.93;101794.84;4426779;32;20087;-62
2021/04/26 05:21:54;;;;;;;3.50;3.40;;;;;;;7.79;56.63;101790.66;4413411;32;20061;-62
2021/04/26 05:24:20;;;;;;;3.30;3.20;;;;;;;6.60;55.59;101794.84;4411262;32;20073;-62
2021/04/26 05:26:45;;;;;;;3.15;3.05;;;;;;;7.19;57.02;101790.19;4401811;32;20456;-62
2021/04/26 05:29:10;;;;;;;3.58;3.37;;;;;;;7.72;55.03;101784.72;4416926;32;20095;-62
2021/04/26 05:31:36;;;;;;;3.67;3.58;;;;;;;8.29;54.60;101790.34;4414211;32;20207;-62
2021/04/26 05:34:01;;;;;;;3.87;3.67;;;;;;;8.73;53.18;101780.50;4414174;32;20057;-63
2021/04/26 05:36:26;;;;;;;3.50;3.40;;;;;;;8.93;50.57;101777.34;4415609;32;20131;-62
2021/04/26 05:38:52;;;;;;;3.30;3.20;;;;;;;8.83;51.37;101770.66;4412283;32;20079;-62
2021/04/26 05:41:17;;;;;;;3.92;3.72;;;;;;;8.86;50.80;101760.06;4416865;32;20588;-62
2021/04/26 05:43:43;;;;;;;3.45;3.35;;;;;;;9.01;50.09;101782.37;4418212;32;20068;-63
2021/04/26 05:46:08;;;;;;;3.60;3.50;;;;;;;9.43;50.44;101788.09;4414599;32;20083;-62
2021/04/26 05:48:33;;;;;;;3.50;3.40;;;;;;;9.85;49.13;101786.84;4416627;32;20096;-63
2021/04/26 05:50:59;;;;;;;3.60;3.50;;;;;;;10.16;47.03;101789.31;4413834;32;20174;-63
2021/04/26 05:53:24;;;;;;;3.90;3.70;;;;;;;9.47;45.08;101787.13;4413610;32;20081;-62
2021/04/26 05:55:50;;;;;;;3.72;3.62;;;;;;;8.78;46.74;101784.72;4412100;32;20241;-63
2021/04/26 05:58:15;;;;;;;3.50;3.40;;;;;;;8.28;47.31;101797.34;4413667;32;20146;-63
2021/04/26 06:00:41;;;;;;;3.70;3.60;;;;;;;7.58;49.46;101800.69;4407336;32;20088;-62
2021/04/26 06:03:06;;;;;;;3.53;3.42;;;;;;;7.24;51.15;101803.16;4410472;32;20201;-62
2021/04/26 06:05:32;;;;;;;3.60;3.50;;;;;;;6.82;52.53;101804.88;4411487;32;20523;-66
2021/04/26 06:07:58;;;;;;;3.40;3.30;;;;;;;6.79;52.93;101805.78;4412404;32;20070;-68
2021/04/26 06:10:24;;;;;;;3.53;3.42;;;;;;;6.51;54.06;101788.00;4402752;32;20119;-63
2021/04/26 06:12:49;;;;;;;3.30;3.20;;;;;;;6.42;54.32;101789.94;4407486;32;20118;-65
2021/04/26 06:15:15;;;;;;;3.40;3.30;;;;;;;6.52;54.44;101804.53;4410520;32;20468;-63
2021/04/26 06:17:40;;;;;;;3.40;3.30;;;;;;;6.31;55.45;101801.38;4409882;32;20905;-65
2021/04/26 06:20:06;;;;;;;3.28;3.17;;;;;;;6.44;55.64;101793.37;4413547;32;20092;-64
2021/04/26 06:22:32;;;;;;;3.30;3.20;;;;;;;6.52;55.45;101791.50;4412370;32;20069;-64
2021/04/26 06:24:57;;;;;;;3.20;3.10;;;;;;;6.56;55.58;101795.78;4411586;32;20065;-65
2021/04/26 06:27:22;;;;;;;3.22;3.12;;;;;;;6.68;55.77;101787.72;4415202;32;20166;-64
2021/04/26 06:29:48;;;;;;;3.87;3.60;;;;;;;6.79;53.81;101783.19;4411020;32;20360;-66
2021/04/26 06:32:13;;;;;;;3.60;3.50;;;;;;;6.84;53.50;101783.09;4407928;32;20582;-66
2021/04/26 06:34:38;;;;;;;3.25;3.15;;;;;;;7.07;54.09;101781.75;4412264;32;20685;-67
2021/04/26 06:37:04;;;;;;;3.15;3.05;;;;;;;7.11;53.65;101781.66;4411174;32;20134;-66
2021/04/26 06:39:29;;;;;;;3.53;3.42;;;;;;;7.23;54.13;101784.91;4414049;32;20089;-66
2021/04/26 06:41:57;;;;;;;3.30;3.20;;;;;;;7.34;53.79;101788.19;4421560;32;20582;-67
2021/04/26 06:44:22;;;;;;;3.25;3.15;;;;;;;7.50;53.15;101781.72;4407908;32;20077;-67
2021/04/26 06:46:47;;;;;;;3.45;3.35;;;;;;;7.54;52.47;101772.06;4411975;32;20150;-66
2021/04/26 06:49:15;;;;;;;3.40;3.30;;;;;;;7.66;51.69;101789.19;4416402;32;20110;-65
2021/04/26 06:51:40;;;;;;;3.30;3.20;;;;;;;7.86;51.89;101783.53;4422764;32;20081;-66
2021/04/26 06:54:05;;;;;;;3.30;3.20;;;;;;;7.96;51.25;101787.66;4408807;32;20085;-66
2021/04/26 06:56:31;;;;;;;3.10;3.00;;;;;;;7.94;51.03;101779.84;4410585;32;20179;-66
2021/04/26 06:58:56;;;;;;;3.60;3.50;;;;;;;7.97;51.10;101779.75;4409548;32;20134;-66
2021/04/26 07:01:21;;;;;;;3.40;3.30;;;;;;;7.99;50.18;101780.56;4410254;32;20127;-66
2021/04/26 07:03:47;;;;;;;3.58;3.47;;;;;;;8.14;50.39;101783.75;4410188;32;20095;-65
2021/04/26 07:06:12;;;;;;;3.35;3.25;;;;;;;8.23;50.43;101780.88;4408517;32;20076;-64
2021/04/26 07:08:38;;;;;;;3.28;3.17;;;;;;;8.43;50.38;101776.94;4403987;32;20084;-64
2021/04/26 07:11:03;;;;;;;3.20;3.10;;;;;;;8.52;49.44;101771.44;4414101;32;20075;-65
2021/04/26 07:13:28;;;;;;;3.28;3.17;;;;;;;8.61;47.61;101776.44;4409476;32;20084;-65
2021/04/26 07:15:54;;;;;;;3.30;3.20;;;;;;;8.60;47.09;101764.28;4412499;32;20107;-62
2021/04/26 07:18:19;;;;;;;3.25;3.15;;;;;;;8.78;48.67;101758.53;4411738;32;20069;-65
2021/04/26 07:20:44;;;;;;;3.40;3.30;;;;;;;9.00;47.99;101760.56;4413802;32;20088;-64
2021/04/26 07:23:10;;;;;;;3.40;3.30;;;;;;;9.11;46.62;101755.87;4413352;32;20132;-66
2021/04/26 07:25:35;;;;;;;3.42;3.33;;;;;;;9.25;46.82;101750.22;4406135;32;20084;-66
2021/04/26 07:28:00;;;;;;;3.40;3.30;;;;;;;9.19;43.31;101751.25;4410825;32;20088;-67
2021/04/26 07:30:26;;;;;;;3.30;3.20;;;;;;;9.30;43.66;101752.69;4414758;32;20099;-65
2021/04/26 07:32:51;;;;;;;3.40;3.30;;;;;;;9.43;44.12;101748.81;4416427;32;20072;-66
2021/04/26 07:35:17;;;;;;;3.50;3.40;;;;;;;9.67;42.16;101744.56;4415543;32;20099;-65
2021/04/26 07:37:43;;;;;;;3.50;3.40;;;;;;;9.73;40.70;101740.91;4410143;32;20072;-68
2021/04/26 07:40:10;;;;;;;3.97;3.78;;;;;;;9.76;39.68;101764.38;4411280;32;20097;-68
2021/04/26 07:42:36;;;;;;;3.62;3.53;;;;;;;9.79;40.29;101727.59;4409475;32;20506;-67
2021/04/26 07:45:01;;;;;;;3.58;3.47;;;;;;;9.22;37.67;101600.16;4416518;32;20080;-67
2021/04/26 07:47:27;;;;;;;3.42;3.33;;;;;;;10.02;36.21;101742.56;4416133;32;20158;-67
2021/04/26 07:49:52;;;;;;;4.10;3.90;;;;;;;10.11;35.87;101741.41;4414795;32;20087;-67
2021/04/26 07:52:17;;;;;;;4.12;3.83;;;;;;;10.05;34.89;101744.25;4413414;32;20165;-67
2021/04/26 07:54:43;;;;;;;3.95;3.78;;;;;;;10.14;36.47;101736.06;4412655;32;20073;-67
2021/04/26 07:57:08;;;;;;;3.50;3.40;;;;;;;10.17;34.00;101743.84;4411811;32;20119;-64
2021/04/26 07:59:34;;;;;;;3.50;3.40;;;;;;;10.09;34.19;101746.72;4411352;32;20090;-70
2021/04/26 08:01:59;;;;;;;3.50;3.40;;;;;;;10.14;32.47;101738.66;4412556;32;20168;-63
2021/04/26 08:04:24;;;;;;;3.40;3.30;;;;;;;10.09;32.28;101736.22;4395455;32;20065;-63
2021/04/26 08:06:50;;;;;;;3.53;3.42;;;;;;;10.20;33.62;101756.81;4427425;32;20066;-66
2021/04/26 08:09:15;;;;;;;3.53;3.42;;;;;;;10.44;32.97;101735.94;4416947;32;20952;-67
2021/04/26 08:11:40;;;;;;;3.45;3.35;;;;;;;10.46;33.26;101728.87;4414484;32;20295;-65
2021/04/26 08:14:06;;;;;;;3.50;3.40;;;;;;;10.37;33.46;101732.69;4411930;32;20064;-65
2021/04/26 08:16:31;;;;;;;3.45;3.35;;;;;;;10.47;34.07;101731.44;4427685;32;20123;-65
2021/04/26 08:18:56;;;;;;;3.50;3.40;;;;;;;10.52;31.65;101739.16;4413613;32;20755;-65
2021/04/26 08:21:22;;;;;;;3.47;3.37;;;;;;;10.64;32.59;101727.38;4415818;32;20110;-67
2021/04/26 08:23:48;;;;;;;4.15;3.95;;;;;;;10.21;32.24;101727.06;4412261;32;20613;-65
2021/04/26 08:26:13;;;;;;;3.50;3.40;;;;;;;10.61;32.61;101725.72;4409767;32;20074;-65
2021/04/26 08:28:39;;;;;;;3.47;3.37;;;;;;;10.61;32.96;101723.09;4412037;32;20076;-65
2021/04/26 08:31:07;;;;;;;4.20;3.83;;;;;;;10.81;31.15;101718.91;4415622;32;20076;-65
2021/04/26 08:33:37;;;;;;;3.55;3.45;;;;;;;10.36;30.45;101718.72;4411736;32;20064;-66
2021/04/26 08:36:03;;;;;;;3.42;3.33;;;;;;;10.36;33.25;101716.09;4412088;32;21052;-64
2021/04/26 08:38:28;;;;;;;3.60;3.50;;;;;;;10.73;32.93;101717.41;4401437;32;20100;-64
2021/04/26 08:40:54;;;;;;;3.40;3.30;;;;;;;11.05;30.18;101711.87;4412088;32;20095;-66
2021/04/26 08:43:19;;;;;;;3.50;3.40;;;;;;;11.00;31.00;101687.53;4425109;32;20613;-64
2021/04/26 08:45:44;;;;;;;3.47;3.37;;;;;;;11.18;31.07;101719.22;4401833;32;20056;-64
2021/04/26 08:48:10;;;;;;;3.50;3.40;;;;;;;11.27;30.16;101707.50;4412438;32;20080;-64
2021/04/26 08:50:35;;;;;;;3.47;3.37;;;;;;;11.20;30.19;101716.53;4412066;32;20091;-64
2021/04/26 08:53:00;;;;;;;3.50;3.40;;;;;;;11.31;30.37;101709.09;4425608;32;20076;-64
2021/04/26 08:55:26;;;;;;;3.60;3.50;;;;;;;11.45;30.67;101712.97;4415277;32;20061;-64
2021/04/26 08:57:51;;;;;;;3.53;3.42;;;;;;;11.33;31.48;101704.63;4426563;32;20085;-64
2021/04/26 09:00:17;;;;;;;3.40;3.30;;;;;;;10.82;30.86;101565.66;4397583;32;20076;-65
2021/04/26 09:02:46;;;;;;;3.72;3.62;;;;;;;11.73;31.40;101702.19;4420502;32;20133;-68
2021/04/26 09:05:28;;;;;;;4.00;3.80;;;;;;;11.75;30.62;101684.56;4410980;32;20080;-67
2021/04/26 09:07:55;;;;;;;4.00;3.80;;;;;;;11.92;29.08;101700.50;4414864;32;20138;-68
2021/04/26 09:10:40;;;;;;;3.60;3.50;;;;;;;11.91;29.47;101709.34;4410008;32;20772;-68
2021/04/26 09:13:23;;;;;;;3.65;3.55;;;;;;;12.01;30.38;101716.81;4424567;32;20076;-66
2021/04/26 09:16:01;;;;;;;3.70;3.60;;;;;;;12.09;30.63;101709.50;4391516;32;20084;-69
2021/04/26 09:18:43;;;;;;;3.60;3.50;;;;;;;12.06;28.94;101704.34;4423367;32;20077;-68
2021/04/26 09:21:19;;;;;;;3.60;3.50;;;;;;;12.14;28.70;101695.19;4411056;32;20083;-68
2021/04/26 09:23:46;;;;;;;3.75;3.65;;;;;;;11.66;29.20;101701.56;4411700;32;20133;-68
2021/04/26 09:26:25;;;;;;;3.60;3.50;;;;;;;11.71;29.58;101693.50;4415083;32;20134;-68
2021/04/26 09:29:12;;;;;;;3.60;3.50;;;;;;;11.64;30.54;101697.28;4413035;32;20077;-66
2021/04/26 09:31:38;;;;;;;4.32;4.12;;;;;;;11.41;30.00;101688.56;4432508;32;20076;-66
2021/04/26 09:34:03;;;;;;;3.80;3.70;;;;;;;11.18;30.92;101686.81;4412702;32;20072;-65
2021/04/26 09:36:33;;;;;;;3.70;3.60;;;;;;;11.40;31.63;101688.63;4413484;32;20190;-66
2021/04/26 09:39:04;;;;;;;3.58;3.47;;;;;;;11.46;30.21;101676.06;4410733;32;20065;-68
2021/04/26 09:41:31;;;;;;;4.32;4.05;;;;;;;11.47;30.13;101675.16;4410889;32;20069;-66
2021/04/26 09:43:59;;;;;;;3.65;3.55;;;;;;;11.31;30.35;101668.81;4424080;32;20452;-70
2021/04/26 09:46:37;;;;;;;3.50;3.40;;;;;;;11.97;31.10;101664.34;4421506;32;20073;-69
2021/04/26 09:49:10;;;;;;;3.62;3.53;;;;;;;11.70;30.75;101652.34;4422811;32;20080;-67
2021/04/26 09:51:35;;;;;;;3.50;3.40;;;;;;;11.68;30.48;101652.38;4424447;32;20099;-68
2021/04/26 09:54:01;;;;;;;3.60;3.50;;;;;;;11.70;31.34;101645.28;4424739;32;20107;-69
2021/04/26 09:56:31;;;;;;;3.60;3.50;;;;;;;11.77;29.54;101649.38;4410651;32;20084;-70
2021/04/26 09:58:58;;;;;;;3.72;3.62;;;;;;;11.69;29.77;101621.72;4408682;32;20120;-66
2021/04/26 10:01:23;;;;;;;3.87;3.72;;;;;;;11.95;29.42;101613.59;4423714;32;20100;-65
2021/04/26 10:03:49;;;;;;;3.80;3.70;;;;;;;12.49;29.20;101629.63;4419154;32;20079;-68
2021/04/26 10:06:15;;;;;;;3.65;3.55;;;;;;;12.46;29.42;101637.66;4412099;32;20079;-68
2021/04/26 10:08:43;;;;;;;3.67;3.58;;;;;;;12.77;29.25;101631.84;4422022;32;20198;-67
2021/04/26 10:11:09;;;;;;;4.07;3.87;;;;;;;12.77;28.34;101626.59;4409390;32;20069;-68
2021/04/26 10:13:34;;;;;;;3.80;3.70;;;;;;;12.16;28.88;101480.22;4413252;32;20222;-67
2021/04/26 10:16:00;;;;;;;3.75;3.65;;;;;;;12.93;27.38;101616.19;4411379;32;20084;-68
2021/04/26 10:18:35;;;;;;;3.70;3.60;;;;;;;12.80;30.41;101614.19;4411793;32;20069;-68
2021/04/26 10:21:00;;;;;;;4.00;3.80;;;;;;;12.66;28.01;101612.22;4408605;32;20281;-70
2021/04/26 10:23:36;;;;;;;3.78;3.67;;;;;;;12.80;27.72;101603.66;4407104;32;20957;-67
2021/04/26 10:26:02;;;;;;;4.15;3.95;;;;;;;13.10;27.78;101599.56;4410078;32;20069;-69
2021/04/26 10:28:28;;;;;;;5.30;5.10;;;;;;;13.29;26.95;101602.19;4406548;32;20852;-68
2021/04/26 10:31:04;;;;;;;4.05;3.85;;;;;;;13.51;27.45;101583.53;4410569;32;20689;-68
2021/04/26 10:33:56;;;;;;;3.87;3.75;;;;;;;13.51;27.01;101583.53;4420799;32;20142;-66
2021/04/26 10:36:40;;;;;;;3.80;3.70;;;;;;;13.56;27.93;101572.75;4427389;32;20134;-66
2021/04/26 10:39:14;;;;;;;4.12;3.92;;;;;;;13.34;26.01;101520.25;4425493;32;20139;-69
2021/04/26 10:41:49;;;;;;;4.20;4.00;;;;;;;13.74;27.40;101581.50;4413210;32;20080;-70
2021/04/26 10:44:15;;;;;;;4.10;3.90;;;;;;;12.67;27.72;101572.63;4429163;32;20093;-67
2021/04/26 10:46:40;;;;;;;4.10;3.90;;;;;;;13.05;26.28;101569.97;4410176;32;20093;-67
2021/04/26 10:49:08;;;;;;;4.10;3.90;;;;;;;13.18;26.37;101565.78;4422928;32;20215;-67
2021/04/26 10:51:37;;;;;;;3.87;3.78;;;;;;;12.82;27.48;101557.03;4435310;32;20601;-67
2021/04/26 10:54:02;;;;;;;3.80;3.70;;;;;;;12.83;29.18;101556.97;4411974;32;20882;-68
2021/04/26 10:56:29;;;;;;;3.85;3.70;;;;;;;13.28;28.24;101552.16;4411288;32;20064;-65
2021/04/26 10:59:16;;;;;;;4.10;3.90;;;;;;;13.12;30.35;101555.53;4420465;32;20413;-68
2021/04/26 11:01:49;;;;;;;4.12;3.92;;;;;;;13.74;27.37;101550.69;4438508;32;20083;-68
2021/04/26 11:04:14;;;;;;;6.07;5.78;;;;;;;13.56;26.24;101536.66;4420026;32;20717;-65
2021/04/26 11:06:40;;;;;;;3.90;3.80;;;;;;;13.83;25.60;101540.59;4413039;32;20095;-68
2021/04/26 11:09:08;;;;;;;4.12;3.92;;;;;;;13.79;26.12;101523.22;4413545;32;20077;-65
2021/04/26 11:11:38;;;;;;;4.00;3.80;;;;;;;13.57;27.51;101517.28;4415669;32;20713;-66
2021/04/26 11:14:03;;;;;;;4.15;3.95;;;;;;;13.55;26.74;101519.16;4400818;32;20068;-65
2021/04/26 11:16:30;;;;;;;3.80;3.70;;;;;;;13.28;25.44;101523.16;4426813;32;20468;-63
2021/04/26 11:18:59;;;;;;;4.37;4.18;;;;;;;13.69;27.50;101520.19;4414185;32;20081;-64
2021/04/26 11:21:48;;;;;;;4.18;3.97;;;;;;;13.56;26.72;101520.84;4430079;32;20084;-67
2021/04/26 11:24:24;;;;;;;4.05;3.85;;;;;;;13.59;26.52;101516.34;4436693;32;20073;-67
2021/04/26 11:27:08;;;;;;;4.15;3.95;;;;;;;13.50;25.10;101510.59;4426631;32;20091;-67
2021/04/26 11:29:54;;;;;;;4.10;3.90;;;;;;;13.64;27.24;101512.53;4416217;32;20079;-68